sensor_id;sensor_type;location;lat;lon;timestamp;temperature;humidity
5697;DHT22;2873;50.966;7.210;2023-03-13T00:02:09;11.00;99.90
5697;DHT22;2873;50.966;7.210;2023-03-13T00:04:35;11.10;99.90
5697;DHT22;2873;50.966;7.210;2023-03-13T00:07:00;11.10;99.90
5697;DHT22;2873;50.966;7.210;2023-03-13T00:09:26;11.20;99.90
5697;DHT22;2873;50.966;7.210;2023-03-13T00:11:52;11.20;99.90
5697;DHT22;2873;50.966;7.210;2023-03-13T00:14:17;11.20;99.90
5697;DHT22;2873;50.966;7.210;2023-03-13T00:16:43;11.20;99.90
5697;DHT22;2873;50.966;7.210;2023-03-13T00:19:09;11.20;99.90
5697;DHT22;2873;50.966;7.210;2023-03-13T00:21:35;11.20;99.90
5697;DHT22;2873;50.966;7.210;2023-03-13T00:24:05;11.20;99.90
5697;DHT22;2873;50.966;7.210;2023-03-13T00:26:31;11.20;99.90
5697;DHT22;2873;50.966;7.210;2023-03-13T00:28:57;11.20;99.90
5697;DHT22;2873;50.966;7.210;2023-03-13T00:31:25;11.20;99.90
5697;DHT22;2873;50.966;7.210;2023-03-13T00:33:53;11.20;99.90
5697;DHT22;2873;50.966;7.210;2023-03-13T00:36:21;11.10;99.90
5697;DHT22;2873;50.966;7.210;2023-03-13T00:38:47;11.10;99.90
5697;DHT22;2873;50.966;7.210;2023-03-13T00:41:22;11.00;99.90
5697;DHT22;2873;50.966;7.210;2023-03-13T00:43:49;11.10;99.90
5697;DHT22;2873;50.966;7.210;2023-03-13T00:46:17;11.00;99.90
5697;DHT22;2873;50.966;7.210;2023-03-13T00:48:43;11.00;99.90
5697;DHT22;2873;50.966;7.210;2023-03-13T00:51:09;11.10;99.90
5697;DHT22;2873;50.966;7.210;2023-03-13T00:53:35;11.00;99.90
5697;DHT22;2873;50.966;7.210;2023-03-13T00:56:04;11.10;99.90
5697;DHT22;2873;50.966;7.210;2023-03-13T00:58:32;11.10;99.90
5697;DHT22;2873;50.966;7.210;2023-03-13T01:01:06;11.10;99.90
5697;DHT22;2873;50.966;7.210;2023-03-13T01:03:32;11.10;99.90
5697;DHT22;2873;50.966;7.210;2023-03-13T01:05:59;11.20;99.90
5697;DHT22;2873;50.966;7.210;2023-03-13T01:08:26;11.20;99.90
5697;DHT22;2873;50.966;7.210;2023-03-13T01:11:23;11.10;99.90
5697;DHT22;2873;50.966;7.210;2023-03-13T01:13:53;11.20;99.90
5697;DHT22;2873;50.966;7.210;2023-03-13T01:16:20;11.10;99.90
5697;DHT22;2873;50.966;7.210;2023-03-13T01:18:48;11.20;99.90
5697;DHT22;2873;50.966;7.210;2023-03-13T01:21:15;11.20;99.90
5697;DHT22;2873;50.966;7.210;2023-03-13T01:23:43;11.10;99.90
5697;DHT22;2873;50.966;7.210;2023-03-13T01:26:09;11.10;99.90
5697;DHT22;2873;50.966;7.210;2023-03-13T01:28:34;11.20;99.90
5697;DHT22;2873;50.966;7.210;2023-03-13T01:31:01;11.10;99.90
5697;DHT22;2873;50.966;7.210;2023-03-13T01:33:34;11.10;99.90
5697;DHT22;2873;50.966;7.210;2023-03-13T01:36:00;11.00;99.90
5697;DHT22;2873;50.966;7.210;2023-03-13T01:38:26;10.90;99.90
5697;DHT22;2873;50.966;7.210;2023-03-13T01:40:51;11.00;99.90
5697;DHT22;2873;50.966;7.210;2023-03-13T01:43:21;11.00;99.90
5697;DHT22;2873;50.966;7.210;2023-03-13T01:49:04;10.90;99.90
5697;DHT22;2873;50.966;7.210;2023-03-13T01:51:47;10.90;99.90
5697;DHT22;2873;50.966;7.210;2023-03-13T01:54:37;10.90;99.90
5697;DHT22;2873;50.966;7.210;2023-03-13T01:57:15;10.80;99.90
5697;DHT22;2873;50.966;7.210;2023-03-13T01:59:47;10.80;99.90
5697;DHT22;2873;50.966;7.210;2023-03-13T02:02:15;10.90;99.90
5697;DHT22;2873;50.966;7.210;2023-03-13T02:04:46;11.00;99.90
5697;DHT22;2873;50.966;7.210;2023-03-13T02:07:16;10.90;99.90
5697;DHT22;2873;50.966;7.210;2023-03-13T02:09:44;10.90;99.90
5697;DHT22;2873;50.966;7.210;2023-03-13T02:12:16;11.00;99.90
5697;DHT22;2873;50.966;7.210;2023-03-13T02:14:44;11.00;99.90
5697;DHT22;2873;50.966;7.210;2023-03-13T02:17:12;11.00;99.90
5697;DHT22;2873;50.966;7.210;2023-03-13T02:19:44;11.00;99.90
5697;DHT22;2873;50.966;7.210;2023-03-13T02:25:07;11.10;99.90
5697;DHT22;2873;50.966;7.210;2023-03-13T02:27:34;11.10;99.90
5697;DHT22;2873;50.966;7.210;2023-03-13T02:30:00;11.10;99.90
5697;DHT22;2873;50.966;7.210;2023-03-13T02:32:28;11.10;99.90
5697;DHT22;2873;50.966;7.210;2023-03-13T02:34:57;11.20;99.90
5697;DHT22;2873;50.966;7.210;2023-03-13T02:37:27;11.20;99.90
5697;DHT22;2873;50.966;7.210;2023-03-13T02:39:55;11.10;99.90
5697;DHT22;2873;50.966;7.210;2023-03-13T02:42:22;11.20;99.90
5697;DHT22;2873;50.966;7.210;2023-03-13T02:44:48;11.10;99.90
5697;DHT22;2873;50.966;7.210;2023-03-13T02:47:23;11.20;99.90
5697;DHT22;2873;50.966;7.210;2023-03-13T02:49:50;11.20;99.90
5697;DHT22;2873;50.966;7.210;2023-03-13T02:52:21;11.30;99.90
5697;DHT22;2873;50.966;7.210;2023-03-13T02:54:52;11.10;99.90
5697;DHT22;2873;50.966;7.210;2023-03-13T02:57:20;11.20;99.90
5697;DHT22;2873;50.966;7.210;2023-03-13T02:59:45;11.10;99.90
5697;DHT22;2873;50.966;7.210;2023-03-13T03:02:11;11.10;99.90
5697;DHT22;2873;50.966;7.210;2023-03-13T03:04:37;11.10;99.90
5697;DHT22;2873;50.966;7.210;2023-03-13T03:07:02;11.00;99.90
5697;DHT22;2873;50.966;7.210;2023-03-13T03:09:28;11.00;99.90
5697;DHT22;2873;50.966;7.210;2023-03-13T03:11:53;11.10;99.90
5697;DHT22;2873;50.966;7.210;2023-03-13T03:14:19;11.10;99.90
5697;DHT22;2873;50.966;7.210;2023-03-13T03:16:44;11.10;99.90
5697;DHT22;2873;50.966;7.210;2023-03-13T03:19:10;11.20;99.90
5697;DHT22;2873;50.966;7.210;2023-03-13T03:21:35;11.20;99.90
5697;DHT22;2873;50.966;7.210;2023-03-13T03:24:01;11.20;99.90
5697;DHT22;2873;50.966;7.210;2023-03-13T03:26:27;11.10;99.90
5697;DHT22;2873;50.966;7.210;2023-03-13T03:28:53;11.20;99.90
5697;DHT22;2873;50.966;7.210;2023-03-13T03:31:18;11.20;99.90
5697;DHT22;2873;50.966;7.210;2023-03-13T03:33:44;11.20;99.90
5697;DHT22;2873;50.966;7.210;2023-03-13T03:36:13;11.20;99.90
5697;DHT22;2873;50.966;7.210;2023-03-13T03:38:40;11.20;99.90
5697;DHT22;2873;50.966;7.210;2023-03-13T03:41:06;11.20;99.90
5697;DHT22;2873;50.966;7.210;2023-03-13T03:43:32;11.10;99.90
5697;DHT22;2873;50.966;7.210;2023-03-13T03:45:57;11.20;99.90
5697;DHT22;2873;50.966;7.210;2023-03-13T03:48:23;11.10;99.90
5697;DHT22;2873;50.966;7.210;2023-03-13T03:50:48;11.10;99.90
5697;DHT22;2873;50.966;7.210;2023-03-13T03:53:14;11.10;99.90
5697;DHT22;2873;50.966;7.210;2023-03-13T03:55:40;11.10;99.90
5697;DHT22;2873;50.966;7.210;2023-03-13T03:58:05;11.20;99.90
5697;DHT22;2873;50.966;7.210;2023-03-13T04:00:31;11.10;99.90
5697;DHT22;2873;50.966;7.210;2023-03-13T04:02:56;11.20;99.90
5697;DHT22;2873;50.966;7.210;2023-03-13T04:05:23;11.20;99.90
5697;DHT22;2873;50.966;7.210;2023-03-13T04:07:49;11.20;99.90
5697;DHT22;2873;50.966;7.210;2023-03-13T04:10:14;11.20;99.90
5697;DHT22;2873;50.966;7.210;2023-03-13T04:12:40;11.00;99.90
5697;DHT22;2873;50.966;7.210;2023-03-13T04:15:06;11.10;99.90
5697;DHT22;2873;50.966;7.210;2023-03-13T04:17:32;11.20;99.90
5697;DHT22;2873;50.966;7.210;2023-03-13T04:19:58;11.10;99.90
5697;DHT22;2873;50.966;7.210;2023-03-13T04:22:24;11.20;99.90
5697;DHT22;2873;50.966;7.210;2023-03-13T04:24:51;11.30;99.90
5697;DHT22;2873;50.966;7.210;2023-03-13T04:27:17;11.20;99.90
5697;DHT22;2873;50.966;7.210;2023-03-13T04:29:43;11.20;99.90
5697;DHT22;2873;50.966;7.210;2023-03-13T04:32:08;11.30;99.90
5697;DHT22;2873;50.966;7.210;2023-03-13T04:34:34;11.30;99.90
5697;DHT22;2873;50.966;7.210;2023-03-13T04:36:59;11.40;99.90
5697;DHT22;2873;50.966;7.210;2023-03-13T04:39:25;11.50;99.90
5697;DHT22;2873;50.966;7.210;2023-03-13T04:41:52;11.50;99.90
5697;DHT22;2873;50.966;7.210;2023-03-13T04:44:18;11.60;99.90
5697;DHT22;2873;50.966;7.210;2023-03-13T04:46:43;11.60;99.90
5697;DHT22;2873;50.966;7.210;2023-03-13T04:49:09;11.70;99.90
5697;DHT22;2873;50.966;7.210;2023-03-13T04:51:34;11.70;99.90
5697;DHT22;2873;50.966;7.210;2023-03-13T04:54:00;11.70;99.90
5697;DHT22;2873;50.966;7.210;2023-03-13T04:56:26;11.60;99.90
5697;DHT22;2873;50.966;7.210;2023-03-13T04:58:52;11.60;99.90
5697;DHT22;2873;50.966;7.210;2023-03-13T05:01:18;11.60;99.90
5697;DHT22;2873;50.966;7.210;2023-03-13T05:03:43;11.70;99.90
5697;DHT22;2873;50.966;7.210;2023-03-13T05:06:09;11.70;99.90
5697;DHT22;2873;50.966;7.210;2023-03-13T05:08:35;11.70;99.90
5697;DHT22;2873;50.966;7.210;2023-03-13T05:11:01;11.80;99.90
5697;DHT22;2873;50.966;7.210;2023-03-13T05:13:26;11.80;99.90
5697;DHT22;2873;50.966;7.210;2023-03-13T05:15:52;11.90;99.90
5697;DHT22;2873;50.966;7.210;2023-03-13T05:18:18;11.90;99.90
5697;DHT22;2873;50.966;7.210;2023-03-13T05:20:43;11.80;99.90
5697;DHT22;2873;50.966;7.210;2023-03-13T05:23:09;11.90;99.90
5697;DHT22;2873;50.966;7.210;2023-03-13T05:25:34;11.90;99.90
5697;DHT22;2873;50.966;7.210;2023-03-13T05:28:00;11.90;99.90
5697;DHT22;2873;50.966;7.210;2023-03-13T05:30:26;11.90;99.90
5697;DHT22;2873;50.966;7.210;2023-03-13T05:32:51;12.00;99.90
5697;DHT22;2873;50.966;7.210;2023-03-13T05:35:17;12.10;99.90
5697;DHT22;2873;50.966;7.210;2023-03-13T05:37:42;12.10;99.90
5697;DHT22;2873;50.966;7.210;2023-03-13T05:40:10;12.10;99.90
5697;DHT22;2873;50.966;7.210;2023-03-13T05:42:36;12.10;99.90
5697;DHT22;2873;50.966;7.210;2023-03-13T05:45:02;12.20;99.90
5697;DHT22;2873;50.966;7.210;2023-03-13T05:47:27;12.20;99.90
5697;DHT22;2873;50.966;7.210;2023-03-13T05:49:53;12.30;99.90
5697;DHT22;2873;50.966;7.210;2023-03-13T05:52:19;12.40;99.90
5697;DHT22;2873;50.966;7.210;2023-03-13T05:54:44;12.50;99.90
5697;DHT22;2873;50.966;7.210;2023-03-13T05:57:10;12.50;99.90
5697;DHT22;2873;50.966;7.210;2023-03-13T05:59:35;12.40;99.90
5697;DHT22;2873;50.966;7.210;2023-03-13T06:02:01;12.50;99.90
5697;DHT22;2873;50.966;7.210;2023-03-13T06:04:27;12.50;99.90
5697;DHT22;2873;50.966;7.210;2023-03-13T06:06:52;12.50;99.90
5697;DHT22;2873;50.966;7.210;2023-03-13T06:09:18;12.50;99.90
5697;DHT22;2873;50.966;7.210;2023-03-13T06:11:44;12.60;99.90
5697;DHT22;2873;50.966;7.210;2023-03-13T06:14:09;12.60;99.90
5697;DHT22;2873;50.966;7.210;2023-03-13T06:16:35;12.70;99.90
5697;DHT22;2873;50.966;7.210;2023-03-13T06:19:00;12.70;99.90
5697;DHT22;2873;50.966;7.210;2023-03-13T06:21:26;12.70;99.90
5697;DHT22;2873;50.966;7.210;2023-03-13T06:23:53;12.70;99.90
5697;DHT22;2873;50.966;7.210;2023-03-13T06:26:19;12.70;99.90
5697;DHT22;2873;50.966;7.210;2023-03-13T06:28:45;12.80;99.90
5697;DHT22;2873;50.966;7.210;2023-03-13T06:31:10;12.80;99.90
5697;DHT22;2873;50.966;7.210;2023-03-13T06:33:36;12.90;99.90
5697;DHT22;2873;50.966;7.210;2023-03-13T06:36:02;12.90;99.90
5697;DHT22;2873;50.966;7.210;2023-03-13T06:38:28;13.00;99.90
5697;DHT22;2873;50.966;7.210;2023-03-13T06:40:54;13.10;99.90
5697;DHT22;2873;50.966;7.210;2023-03-13T06:43:20;13.20;99.90
5697;DHT22;2873;50.966;7.210;2023-03-13T06:45:46;13.10;99.90
5697;DHT22;2873;50.966;7.210;2023-03-13T06:48:11;13.20;99.90
5697;DHT22;2873;50.966;7.210;2023-03-13T06:50:38;13.20;99.90
5697;DHT22;2873;50.966;7.210;2023-03-13T06:53:04;13.30;99.90
5697;DHT22;2873;50.966;7.210;2023-03-13T06:55:29;13.20;99.90
5697;DHT22;2873;50.966;7.210;2023-03-13T06:57:55;13.30;99.90
5697;DHT22;2873;50.966;7.210;2023-03-13T07:00:21;13.30;99.90
5697;DHT22;2873;50.966;7.210;2023-03-13T07:02:47;13.30;99.90
5697;DHT22;2873;50.966;7.210;2023-03-13T07:05:12;13.20;99.90
5697;DHT22;2873;50.966;7.210;2023-03-13T07:07:42;13.30;99.90
5697;DHT22;2873;50.966;7.210;2023-03-13T07:10:08;13.30;99.90
5697;DHT22;2873;50.966;7.210;2023-03-13T07:12:35;13.40;99.90
5697;DHT22;2873;50.966;7.210;2023-03-13T07:15:00;13.30;99.90
5697;DHT22;2873;50.966;7.210;2023-03-13T07:17:26;13.30;99.90
5697;DHT22;2873;50.966;7.210;2023-03-13T07:19:52;13.40;99.90
5697;DHT22;2873;50.966;7.210;2023-03-13T07:22:17;13.40;99.90
5697;DHT22;2873;50.966;7.210;2023-03-13T07:24:43;13.50;99.90
5697;DHT22;2873;50.966;7.210;2023-03-13T07:27:08;13.60;99.90
5697;DHT22;2873;50.966;7.210;2023-03-13T07:29:34;13.70;99.90
5697;DHT22;2873;50.966;7.210;2023-03-13T07:31:59;13.50;99.90
5697;DHT22;2873;50.966;7.210;2023-03-13T07:34:25;13.60;99.90
5697;DHT22;2873;50.966;7.210;2023-03-13T07:36:51;13.70;99.90
5697;DHT22;2873;50.966;7.210;2023-03-13T07:39:16;13.70;99.90
5697;DHT22;2873;50.966;7.210;2023-03-13T07:41:42;13.60;99.90
5697;DHT22;2873;50.966;7.210;2023-03-13T07:44:07;13.80;99.90
5697;DHT22;2873;50.966;7.210;2023-03-13T07:46:33;13.80;99.90
5697;DHT22;2873;50.966;7.210;2023-03-13T07:48:58;13.90;99.90
5697;DHT22;2873;50.966;7.210;2023-03-13T07:51:25;13.80;99.90
5697;DHT22;2873;50.966;7.210;2023-03-13T07:53:51;13.90;99.90
5697;DHT22;2873;50.966;7.210;2023-03-13T07:56:19;13.80;99.90
5697;DHT22;2873;50.966;7.210;2023-03-13T07:58:46;14.00;99.90
5697;DHT22;2873;50.966;7.210;2023-03-13T08:01:14;14.00;99.90
5697;DHT22;2873;50.966;7.210;2023-03-13T08:03:40;14.00;99.90
5697;DHT22;2873;50.966;7.210;2023-03-13T08:06:08;14.10;99.90
5697;DHT22;2873;50.966;7.210;2023-03-13T08:08:35;14.30;99.90
5697;DHT22;2873;50.966;7.210;2023-03-13T08:11:09;14.30;99.90
5697;DHT22;2873;50.966;7.210;2023-03-13T08:13:35;14.40;99.90
5697;DHT22;2873;50.966;7.210;2023-03-13T08:16:11;14.30;99.90
5697;DHT22;2873;50.966;7.210;2023-03-13T08:18:39;14.30;99.90
5697;DHT22;2873;50.966;7.210;2023-03-13T08:21:13;14.40;99.90
5697;DHT22;2873;50.966;7.210;2023-03-13T08:23:39;14.50;99.90
5697;DHT22;2873;50.966;7.210;2023-03-13T08:26:15;14.50;99.90
5697;DHT22;2873;50.966;7.210;2023-03-13T08:28:42;14.50;99.90
5697;DHT22;2873;50.966;7.210;2023-03-13T08:31:16;14.50;99.90
5697;DHT22;2873;50.966;7.210;2023-03-13T08:33:43;14.40;99.90
5697;DHT22;2873;50.966;7.210;2023-03-13T08:36:20;14.40;99.90
5697;DHT22;2873;50.966;7.210;2023-03-13T08:38:48;14.50;99.90
5697;DHT22;2873;50.966;7.210;2023-03-13T08:41:15;14.50;99.90
5697;DHT22;2873;50.966;7.210;2023-03-13T08:43:41;14.50;99.90
5697;DHT22;2873;50.966;7.210;2023-03-13T08:46:07;14.50;99.90
5697;DHT22;2873;50.966;7.210;2023-03-13T08:48:32;14.50;99.90
5697;DHT22;2873;50.966;7.210;2023-03-13T08:51:03;14.50;99.90
5697;DHT22;2873;50.966;7.210;2023-03-13T08:53:30;14.50;99.90
5697;DHT22;2873;50.966;7.210;2023-03-13T08:55:56;14.30;99.90
5697;DHT22;2873;50.966;7.210;2023-03-13T08:58:21;14.40;99.90
5697;DHT22;2873;50.966;7.210;2023-03-13T09:00:47;14.30;99.90
5697;DHT22;2873;50.966;7.210;2023-03-13T09:03:13;14.30;99.90
5697;DHT22;2873;50.966;7.210;2023-03-13T09:05:38;14.30;99.90
5697;DHT22;2873;50.966;7.210;2023-03-13T09:08:04;14.20;99.90
5697;DHT22;2873;50.966;7.210;2023-03-13T09:10:32;14.10;99.90
5697;DHT22;2873;50.966;7.210;2023-03-13T09:12:57;14.10;99.90
5697;DHT22;2873;50.966;7.210;2023-03-13T09:15:23;14.10;99.90
5697;DHT22;2873;50.966;7.210;2023-03-13T09:17:48;14.10;99.90
5697;DHT22;2873;50.966;7.210;2023-03-13T09:20:14;14.20;99.90
5697;DHT22;2873;50.966;7.210;2023-03-13T09:22:40;14.20;99.90
5697;DHT22;2873;50.966;7.210;2023-03-13T09:25:05;14.20;99.90
5697;DHT22;2873;50.966;7.210;2023-03-13T09:27:31;14.20;99.90
5697;DHT22;2873;50.966;7.210;2023-03-13T09:29:56;14.20;99.90
5697;DHT22;2873;50.966;7.210;2023-03-13T09:32:23;14.20;99.90
5697;DHT22;2873;50.966;7.210;2023-03-13T09:34:49;14.20;99.90
5697;DHT22;2873;50.966;7.210;2023-03-13T09:37:14;14.10;99.90
5697;DHT22;2873;50.966;7.210;2023-03-13T09:39:40;14.20;99.90
5697;DHT22;2873;50.966;7.210;2023-03-13T09:42:15;14.30;99.90
5697;DHT22;2873;50.966;7.210;2023-03-13T09:47:23;14.20;99.90
5697;DHT22;2873;50.966;7.210;2023-03-13T09:49:54;14.30;99.90
5697;DHT22;2873;50.966;7.210;2023-03-13T09:52:23;14.30;99.90
5697;DHT22;2873;50.966;7.210;2023-03-13T09:55:12;14.30;99.90
5697;DHT22;2873;50.966;7.210;2023-03-13T09:57:49;14.30;99.90
5697;DHT22;2873;50.966;7.210;2023-03-13T10:00:25;14.20;99.90
5697;DHT22;2873;50.966;7.210;2023-03-13T10:05:28;14.30;99.90
5697;DHT22;2873;50.966;7.210;2023-03-13T10:13:21;14.40;99.90
5697;DHT22;2873;50.966;7.210;2023-03-13T10:16:00;14.40;99.90
5697;DHT22;2873;50.966;7.210;2023-03-13T10:18:27;14.30;99.90
5697;DHT22;2873;50.966;7.210;2023-03-13T10:20:57;14.30;99.90
5697;DHT22;2873;50.966;7.210;2023-03-13T10:26:00;14.40;99.90
5697;DHT22;2873;50.966;7.210;2023-03-13T10:28:25;14.40;99.90
5697;DHT22;2873;50.966;7.210;2023-03-13T10:31:00;14.50;99.90
5697;DHT22;2873;50.966;7.210;2023-03-13T10:33:28;14.50;99.90
5697;DHT22;2873;50.966;7.210;2023-03-13T10:38:33;14.70;99.90
5697;DHT22;2873;50.966;7.210;2023-03-13T10:41:05;14.80;99.90
5697;DHT22;2873;50.966;7.210;2023-03-13T10:43:32;14.90;99.90
5697;DHT22;2873;50.966;7.210;2023-03-13T10:45:57;15.00;99.90
5697;DHT22;2873;50.966;7.210;2023-03-13T10:48:25;15.10;99.90
5697;DHT22;2873;50.966;7.210;2023-03-13T10:50:53;15.10;99.90
5697;DHT22;2873;50.966;7.210;2023-03-13T10:56:07;15.20;99.90
5697;DHT22;2873;50.966;7.210;2023-03-13T10:58:43;15.20;99.90
5697;DHT22;2873;50.966;7.210;2023-03-13T11:03:47;15.20;99.90
5697;DHT22;2873;50.966;7.210;2023-03-13T11:06:25;15.20;99.90
5697;DHT22;2873;50.966;7.210;2023-03-13T11:14:17;15.30;99.90
5697;DHT22;2873;50.966;7.210;2023-03-13T11:25:02;15.70;99.90
5697;DHT22;2873;50.966;7.210;2023-03-13T11:27:36;15.70;99.90
5697;DHT22;2873;50.966;7.210;2023-03-13T11:32:59;15.70;99.90
5697;DHT22;2873;50.966;7.210;2023-03-13T11:38:29;15.80;99.90
5697;DHT22;2873;50.966;7.210;2023-03-13T11:44:14;15.80;99.90
5697;DHT22;2873;50.966;7.210;2023-03-13T11:47:07;15.80;99.90
5697;DHT22;2873;50.966;7.210;2023-03-13T11:55:24;15.80;99.90
5697;DHT22;2873;50.966;7.210;2023-03-13T12:00:36;15.80;99.90
5697;DHT22;2873;50.966;7.210;2023-03-13T12:03:13;15.90;99.90
5697;DHT22;2873;50.966;7.210;2023-03-13T12:05:48;15.90;99.90
5697;DHT22;2873;50.966;7.210;2023-03-13T12:08:40;16.40;99.90
5697;DHT22;2873;50.966;7.210;2023-03-13T12:11:19;16.30;99.90
5697;DHT22;2873;50.966;7.210;2023-03-13T12:14:03;16.40;99.90
5697;DHT22;2873;50.966;7.210;2023-03-13T12:16:40;16.20;99.90
5697;DHT22;2873;50.966;7.210;2023-03-13T12:19:11;16.00;99.90
5697;DHT22;2873;50.966;7.210;2023-03-13T12:21:52;16.10;99.90
5697;DHT22;2873;50.966;7.210;2023-03-13T12:24:25;16.10;99.90
5697;DHT22;2873;50.966;7.210;2023-03-13T12:27:02;16.20;99.90
5697;DHT22;2873;50.966;7.210;2023-03-13T12:29:39;16.30;99.90
5697;DHT22;2873;50.966;7.210;2023-03-13T12:32:13;16.20;99.90
5697;DHT22;2873;50.966;7.210;2023-03-13T12:34:49;16.80;99.90
5697;DHT22;2873;50.966;7.210;2023-03-13T12:37:33;17.10;99.90
5697;DHT22;2873;50.966;7.210;2023-03-13T12:51:42;17.00;99.90
5697;DHT22;2873;50.966;7.210;2023-03-13T12:54:33;16.90;99.90
5697;DHT22;2873;50.966;7.210;2023-03-13T12:59:46;16.60;99.90
5697;DHT22;2873;50.966;7.210;2023-03-13T13:04:47;16.70;99.90
5697;DHT22;2873;50.966;7.210;2023-03-13T13:07:32;16.80;99.90
5697;DHT22;2873;50.966;7.210;2023-03-13T13:10:14;16.60;99.90
5697;DHT22;2873;50.966;7.210;2023-03-13T13:12:46;16.70;99.90
5697;DHT22;2873;50.966;7.210;2023-03-13T13:15:22;17.10;99.90
5697;DHT22;2873;50.966;7.210;2023-03-13T13:20:42;16.60;99.90
5697;DHT22;2873;50.966;7.210;2023-03-13T13:23:41;16.60;99.90
5697;DHT22;2873;50.966;7.210;2023-03-13T13:28:56;16.40;99.90
5697;DHT22;2873;50.966;7.210;2023-03-13T13:37:02;16.30;99.90
5697;DHT22;2873;50.966;7.210;2023-03-13T13:39:48;16.00;99.90
5697;DHT22;2873;50.966;7.210;2023-03-13T13:47:30;16.30;99.90
5697;DHT22;2873;50.966;7.210;2023-03-13T13:49:58;16.40;99.90
5697;DHT22;2873;50.966;7.210;2023-03-13T13:52:36;16.60;99.90
5697;DHT22;2873;50.966;7.210;2023-03-13T13:55:28;16.20;99.90
5697;DHT22;2873;50.966;7.210;2023-03-13T13:57:48;16.10;99.90
5697;DHT22;2873;50.966;7.210;2023-03-13T14:00:24;15.80;99.90
5697;DHT22;2873;50.966;7.210;2023-03-13T14:02:51;16.00;99.90
5697;DHT22;2873;50.966;7.210;2023-03-13T14:05:28;16.20;99.90
5697;DHT22;2873;50.966;7.210;2023-03-13T14:08:05;16.30;99.90
5697;DHT22;2873;50.966;7.210;2023-03-13T14:10:42;16.20;99.90
5697;DHT22;2873;50.966;7.210;2023-03-13T14:13:18;16.30;99.90
5697;DHT22;2873;50.966;7.210;2023-03-13T14:15:51;16.40;99.90
5697;DHT22;2873;50.966;7.210;2023-03-13T14:18:29;16.50;99.90
5697;DHT22;2873;50.966;7.210;2023-03-13T14:23:38;16.10;99.90
5697;DHT22;2873;50.966;7.210;2023-03-13T14:26:19;16.60;99.90
5697;DHT22;2873;50.966;7.210;2023-03-13T14:28:48;16.50;99.90
5697;DHT22;2873;50.966;7.210;2023-03-13T14:31:32;16.40;99.90
5697;DHT22;2873;50.966;7.210;2023-03-13T14:34:02;17.00;99.90
5697;DHT22;2873;50.966;7.210;2023-03-13T14:36:29;17.00;99.90
5697;DHT22;2873;50.966;7.210;2023-03-13T14:38:57;16.70;99.90
5697;DHT22;2873;50.966;7.210;2023-03-13T14:41:28;16.90;99.90
5697;DHT22;2873;50.966;7.210;2023-03-13T14:44:00;16.70;99.90
5697;DHT22;2873;50.966;7.210;2023-03-13T14:46:30;16.80;99.90
5697;DHT22;2873;50.966;7.210;2023-03-13T14:48:56;16.60;99.90
5697;DHT22;2873;50.966;7.210;2023-03-13T14:51:29;16.60;99.90
5697;DHT22;2873;50.966;7.210;2023-03-13T14:54:00;16.40;99.90
5697;DHT22;2873;50.966;7.210;2023-03-13T14:56:37;16.50;99.90
5697;DHT22;2873;50.966;7.210;2023-03-13T14:59:18;16.40;99.90
5697;DHT22;2873;50.966;7.210;2023-03-13T15:01:44;16.40;99.90
5697;DHT22;2873;50.966;7.210;2023-03-13T15:04:10;16.50;99.90
5697;DHT22;2873;50.966;7.210;2023-03-13T15:06:36;16.60;99.90
5697;DHT22;2873;50.966;7.210;2023-03-13T15:09:29;16.60;99.90
5697;DHT22;2873;50.966;7.210;2023-03-13T15:11:59;16.70;99.90
5697;DHT22;2873;50.966;7.210;2023-03-13T15:14:40;16.60;99.90
5697;DHT22;2873;50.966;7.210;2023-03-13T15:17:20;16.60;99.90
5697;DHT22;2873;50.966;7.210;2023-03-13T15:19:57;16.70;99.90
5697;DHT22;2873;50.966;7.210;2023-03-13T15:22:35;16.70;99.90
5697;DHT22;2873;50.966;7.210;2023-03-13T15:25:02;16.70;99.90
5697;DHT22;2873;50.966;7.210;2023-03-13T15:27:29;16.60;99.90
5697;DHT22;2873;50.966;7.210;2023-03-13T15:29:54;16.60;99.90
5697;DHT22;2873;50.966;7.210;2023-03-13T15:32:24;16.80;99.90
5697;DHT22;2873;50.966;7.210;2023-03-13T15:34:50;16.70;99.90
5697;DHT22;2873;50.966;7.210;2023-03-13T15:37:16;16.70;99.90
5697;DHT22;2873;50.966;7.210;2023-03-13T15:39:44;16.60;99.90
5697;DHT22;2873;50.966;7.210;2023-03-13T15:42:09;16.60;99.90
5697;DHT22;2873;50.966;7.210;2023-03-13T15:44:35;16.60;99.90
5697;DHT22;2873;50.966;7.210;2023-03-13T15:47:01;16.50;99.90
5697;DHT22;2873;50.966;7.210;2023-03-13T15:49:26;16.40;99.90
5697;DHT22;2873;50.966;7.210;2023-03-13T15:51:52;16.60;99.90
5697;DHT22;2873;50.966;7.210;2023-03-13T15:54:18;16.50;99.90
5697;DHT22;2873;50.966;7.210;2023-03-13T15:56:43;16.50;99.90
5697;DHT22;2873;50.966;7.210;2023-03-13T15:59:13;16.50;99.90
5697;DHT22;2873;50.966;7.210;2023-03-13T16:01:40;16.40;99.90
5697;DHT22;2873;50.966;7.210;2023-03-13T16:04:05;16.40;99.90
5697;DHT22;2873;50.966;7.210;2023-03-13T16:06:31;16.60;99.90
5697;DHT22;2873;50.966;7.210;2023-03-13T16:09:02;16.80;99.90
5697;DHT22;2873;50.966;7.210;2023-03-13T16:11:28;17.30;99.90
5697;DHT22;2873;50.966;7.210;2023-03-13T16:13:54;17.50;99.90
5697;DHT22;2873;50.966;7.210;2023-03-13T16:16:23;17.50;99.90
5697;DHT22;2873;50.966;7.210;2023-03-13T16:18:51;17.30;99.90
5697;DHT22;2873;50.966;7.210;2023-03-13T16:21:25;17.20;99.90
5697;DHT22;2873;50.966;7.210;2023-03-13T16:23:51;17.40;99.90
5697;DHT22;2873;50.966;7.210;2023-03-13T16:26:20;17.60;99.90
5697;DHT22;2873;50.966;7.210;2023-03-13T16:28:46;17.00;99.90
5697;DHT22;2873;50.966;7.210;2023-03-13T16:31:32;17.10;99.90
5697;DHT22;2873;50.966;7.210;2023-03-13T16:33:58;17.10;99.90
5697;DHT22;2873;50.966;7.210;2023-03-13T16:36:29;17.10;99.90
5697;DHT22;2873;50.966;7.210;2023-03-13T16:38:59;17.10;99.90
5697;DHT22;2873;50.966;7.210;2023-03-13T16:41:26;17.30;99.90
5697;DHT22;2873;50.966;7.210;2023-03-13T16:43:53;17.20;99.90
5697;DHT22;2873;50.966;7.210;2023-03-13T16:46:20;17.10;99.90
5697;DHT22;2873;50.966;7.210;2023-03-13T16:48:47;16.60;99.90
5697;DHT22;2873;50.966;7.210;2023-03-13T16:51:21;16.70;99.90
5697;DHT22;2873;50.966;7.210;2023-03-13T16:53:49;16.70;99.90
5697;DHT22;2873;50.966;7.210;2023-03-13T16:58:50;16.50;99.90
5697;DHT22;2873;50.966;7.210;2023-03-13T17:01:15;16.30;99.90
5697;DHT22;2873;50.966;7.210;2023-03-13T17:03:41;16.30;99.90
5697;DHT22;2873;50.966;7.210;2023-03-13T17:06:16;16.00;99.90
5697;DHT22;2873;50.966;7.210;2023-03-13T17:08:42;16.00;99.90
5697;DHT22;2873;50.966;7.210;2023-03-13T17:11:12;16.10;99.90
5697;DHT22;2873;50.966;7.210;2023-03-13T17:13:40;16.00;99.90
5697;DHT22;2873;50.966;7.210;2023-03-13T17:16:12;16.00;99.90
5697;DHT22;2873;50.966;7.210;2023-03-13T17:18:38;15.80;99.90
5697;DHT22;2873;50.966;7.210;2023-03-13T17:21:04;15.70;99.90
5697;DHT22;2873;50.966;7.210;2023-03-13T17:23:33;15.80;99.90
5697;DHT22;2873;50.966;7.210;2023-03-13T17:25:59;15.80;99.90
5697;DHT22;2873;50.966;7.210;2023-03-13T17:28:24;15.70;99.90
5697;DHT22;2873;50.966;7.210;2023-03-13T17:30:50;15.60;99.90
5697;DHT22;2873;50.966;7.210;2023-03-13T17:33:15;15.70;99.90
5697;DHT22;2873;50.966;7.210;2023-03-13T17:35:41;15.50;99.90
5697;DHT22;2873;50.966;7.210;2023-03-13T17:38:09;15.50;99.90
5697;DHT22;2873;50.966;7.210;2023-03-13T17:40:35;15.50;99.90
5697;DHT22;2873;50.966;7.210;2023-03-13T17:43:01;15.50;99.90
5697;DHT22;2873;50.966;7.210;2023-03-13T17:45:26;15.50;99.90
5697;DHT22;2873;50.966;7.210;2023-03-13T17:47:52;15.50;99.90
5697;DHT22;2873;50.966;7.210;2023-03-13T17:50:24;15.60;99.90